Edwards Air Force Base Edwards US
ICAO: KEDW
IATA: EDW
Category: Large
Scheduled Services: No

Elevation: 2312 ft
TransAlt. 18000 ft.

Airport Communications:
SPORT APP/DEP:132.75
ATIS:26.99
GND:121.8
NASA FLT OPS:135.825
PMSV METRO:34.24
COMD POST:30.4
PTD:37.22
TWR:120.7

KEDW Zoom In..

If you have problems with the map follow the link
https://www.worldairports.se/pages/airport.php?
ICAO=KEDW

Runways:

(A) RW 04L length 12000 ft width 200 ft
---- / hdg 43

(B) RW 04R length 15024 ft width 300 ft
---- / hdg 43

(C) RW 22L length 15024 ft width 300 ft
ILS 110.10 / hdg 223

(D) RW 22R length 12000 ft width 200 ft
---- / hdg 223

Location; KEDW
Day. 07 / Time. 09.13 Zulu
* Altimeter: 30.15
* Temperature: 07° c. 44.6°f.
* Wind from: 130° Speed 03 kn.
Dewpoint: 07° c.
Visibility: 4 Statute Miles.
Clouds: Scattered 2900 ft.
Clouds: Broken 6500 ft.
Conditions: Mist.

KEDW 070913Z AUTO 13003KT 4SM BR SCT029 BKN065 07/07 A3015 RMK AO2 SLP208


Wind From 130°
Speed 03 kn.

 
 
jpsmedia worldairports.se 2019   terms of use